This is the latest recevied weather packets stored in our database for station/object N1SU-13. If no packets are shown the sender has not sent any weather packets the latest 10 day(s).
| Time | Temp. | Humidity | Pressure | Rain* | Wind** | Luminosity | Snow |
|---|---|---|---|---|---|---|---|
| 1777809054 | 12.22° C | 79% | 1013.2 hPa | - | - | - | - |
| 1777808449 | 12.22° C | 79% | 1013.3 hPa | - | - | - | - |
| 1777807879 | 12.22° C | 79% | 1013.3 hPa | - | - | - | - |
| 1777807323 | 12.22° C | 78% | 1013.3 hPa | - | - | - | - |
| 1777806640 | 12.22° C | 78% | 1013.3 hPa | - | - | - | - |
| 1777806054 | 12.22° C | 77% | 1013.5 hPa | - | - | - | - |
| 1777805397 | 11.67° C | 76% | 1013.5 hPa | - | - | - | - |
| 1777804783 | 12.22° C | 75% | 1013.4 hPa | - | - | - | - |
| 1777804199 | 12.22° C | 75% | 1013.4 hPa | - | - | - | - |
| 1777803545 | 10° C | 74% | 1013.7 hPa | - | - | - | - |
| 1777802928 | 10.56° C | 74% | 1013.7 hPa | - | - | - | - |
| 1777802311 | 11.11° C | 73% | - | - | - | - | - |
| 1777801623 | 12.78° C | 72% | 1013.5 hPa | - | - | - | - |
| 1777800945 | 12.78° C | 72% | 1013.5 hPa | - | - | - | - |
| 1777800386 | 13.33° C | 72% | 1013.6 hPa | - | - | - | - |
| 1777799824 | 13.33° C | 72% | 1013.6 hPa | - | - | - | - |
| 1777799208 | 13.33° C | 71% | 1013.6 hPa | - | - | - | - |
| 1777798557 | 13.33° C | 71% | 1013.7 hPa | - | - | - | - |
| 1777797995 | 13.33° C | 71% | 1013.6 hPa | - | - | - | - |
| 1777797338 | 13.33° C | 70% | 1013.6 hPa | - | - | - | - |
| 1777796779 | 13.33° C | 70% | 1013.5 hPa | - | - | - | - |
| 1777796141 | 13.89° C | 69% | 1013.6 hPa | - | - | - | - |
| 1777795495 | 13.89° C | 69% | 1013.5 hPa | - | - | - | - |
| 1777794844 | 14.44° C | 69% | 1013.5 hPa | - | - | - | - |
| 1777794250 | 14.44° C | 68% | 1013.5 hPa | - | - | - | - |
* Rain since midnight (hover to see other rain measurements)
** Current wind speed in m/s (hover to see current wind gust speed)